Time;durP1;ratioP1;P1;durP2;ratioP2;P2;SDS_P1;SDS_P2;PMS_P1;PMS_P2;Temp;Humidity;BMP_temperature;BMP_pressure;BME280_temperature;BME280_humidity;BME280_pressure;Samples;Min_cycle;Max_cycle;Signal;HPM_P1;HPM_P2
2021/07/08 00:01:38;;;;;;;7.10;6.50;;;19.40;98.40;;;;;;5015184;28;20495;-76
2021/07/08 00:04:06;;;;;;;8.33;6.23;;;19.40;98.50;;;;;;5013765;28;20476;-76
2021/07/08 00:06:34;;;;;;;7.00;6.17;;;19.30;98.50;;;;;;5015922;28;20470;-76
2021/07/08 00:09:03;;;;;;;5.97;5.37;;;19.30;98.60;;;;;;5014662;28;20461;-76
2021/07/08 00:11:31;;;;;;;5.33;4.83;;;19.30;98.70;;;;;;5015163;28;20879;-76
2021/07/08 00:13:59;;;;;;;9.77;6.13;;;19.30;98.70;;;;;;5013886;28;20927;-76
2021/07/08 00:16:29;;;;;;;6.83;5.77;;;19.30;98.80;;;;;;5015061;28;20524;-76
2021/07/08 00:18:57;;;;;;;7.50;5.63;;;19.30;98.90;;;;;;5015864;28;20443;-77
2021/07/08 00:21:26;;;;;;;7.67;5.20;;;19.30;98.90;;;;;;5013898;28;20457;-77
2021/07/08 00:23:54;;;;;;;6.57;5.63;;;19.30;98.90;;;;;;5013900;28;20481;-77
2021/07/08 00:26:22;;;;;;;8.70;6.03;;;19.30;99.00;;;;;;5015121;28;20539;-76
2021/07/08 00:28:50;;;;;;;7.00;6.30;;;19.30;99.10;;;;;;5015102;28;20482;-76
2021/07/08 00:31:18;;;;;;;8.83;6.57;;;19.30;99.10;;;;;;5012659;28;20469;-76
2021/07/08 00:33:49;;;;;;;6.90;6.17;;;19.20;99.20;;;;;;5015147;28;20438;-77
2021/07/08 00:36:17;;;;;;;7.60;5.83;;;19.20;99.20;;;;;;5013388;28;20991;-78
2021/07/08 00:38:45;;;;;;;7.27;6.40;;;19.20;99.30;;;;;;5014236;28;21030;-76
2021/07/08 00:41:14;;;;;;;6.10;5.50;;;19.20;99.30;;;;;;5014897;28;20824;-77
2021/07/08 00:43:42;;;;;;;6.70;6.00;;;19.20;99.40;;;;;;5017455;28;20510;-77
2021/07/08 00:46:10;;;;;;;7.17;6.03;;;19.20;99.40;;;;;;5033849;28;20493;-78
2021/07/08 00:48:38;;;;;;;7.90;5.70;;;19.20;99.50;;;;;;5028796;28;20451;-78
2021/07/08 00:51:08;;;;;;;6.53;5.80;;;19.20;99.60;;;;;;5015434;28;20569;-78
2021/07/08 00:53:36;;;;;;;8.03;7.30;;;19.20;99.70;;;;;;5013597;28;20543;-77
2021/07/08 00:56:06;;;;;;;8.33;6.30;;;19.10;99.70;;;;;;5013918;28;20535;-77
2021/07/08 00:58:34;;;;;;;7.50;5.80;;;19.20;99.80;;;;;;5013593;28;20446;-77
2021/07/08 01:01:04;;;;;;;7.80;6.77;;;19.20;99.80;;;;;;5012178;28;20478;-77
2021/07/08 01:03:34;;;;;;;9.20;6.27;;;19.10;99.90;;;;;;5014533;28;20887;-77
2021/07/08 01:06:02;;;;;;;9.87;6.03;;;19.10;99.90;;;;;;5013630;28;20475;-77
2021/07/08 01:08:32;;;;;;;6.90;5.73;;;19.10;99.90;;;;;;5013637;28;20470;-77
2021/07/08 01:11:00;;;;;;;6.85;6.25;;;19.10;99.90;;;;;;5012635;28;20447;-77
2021/07/08 01:13:28;;;;;;;6.87;5.50;;;19.20;99.90;;;;;;5014265;28;20189;-78
2021/07/08 01:15:56;;;;;;;6.80;5.80;;;19.20;99.90;;;;;;5016557;28;20805;-78
2021/07/08 01:18:25;;;;;;;7.43;6.73;;;19.20;99.90;;;;;;5013313;28;20440;-77
2021/07/08 01:20:53;;;;;;;10.10;7.23;;;19.20;99.90;;;;;;5012383;28;20475;-77
2021/07/08 01:23:22;;;;;;;8.13;6.77;;;19.10;99.90;;;;;;5014090;28;20872;-77
2021/07/08 01:25:50;;;;;;;7.33;6.17;;;19.10;99.90;;;;;;5014245;28;20527;-77
2021/07/08 01:28:19;;;;;;;7.70;6.70;;;19.10;99.90;;;;;;5012738;28;20483;-77
2021/07/08 01:30:47;;;;;;;7.20;6.00;;;19.10;99.90;;;;;;5013921;28;21006;-77
2021/07/08 01:33:15;;;;;;;8.63;6.50;;;19.10;99.90;;;;;;5014109;28;20468;-77
2021/07/08 01:35:43;;;;;;;8.17;7.40;;;19.10;99.90;;;;;;5013791;28;20443;-77
2021/07/08 01:38:12;;;;;;;7.80;6.53;;;19.10;99.90;;;;;;5012340;28;20460;-77
2021/07/08 01:40:41;;;;;;;7.13;6.43;;;19.10;99.90;;;;;;5012041;28;21020;-76
2021/07/08 01:43:09;;;;;;;9.13;6.43;;;19.10;99.90;;;;;;5013302;28;20556;-77
2021/07/08 01:45:37;;;;;;;7.50;6.80;;;19.10;99.90;;;;;;5013403;28;20435;-77
2021/07/08 01:48:06;;;;;;;7.40;6.70;;;19.10;99.90;;;;;;5013724;28;20962;-77
2021/07/08 01:50:34;;;;;;;7.03;6.43;;;19.10;99.90;;;;;;5016021;28;20467;-77
2021/07/08 01:53:03;;;;;;;8.67;6.30;;;19.10;99.90;;;;;;5018021;28;20490;-77
2021/07/08 01:55:31;;;;;;;8.90;8.20;;;19.10;99.90;;;;;;5018077;28;20904;-77
2021/07/08 01:58:02;;;;;;;8.33;6.90;;;19.10;99.90;;;;;;5018059;28;20490;-77
2021/07/08 02:00:30;;;;;;;8.18;7.47;;;19.10;99.90;;;;;;5016820;28;20461;-77
2021/07/08 02:02:58;;;;;;;8.30;7.20;;;19.10;99.90;;;;;;5017627;28;20741;-78
2021/07/08 02:05:26;;;;;;;9.97;8.40;;;19.00;99.90;;;;;;5019714;28;20530;-77
2021/07/08 02:07:57;;;;;;;10.50;8.43;;;19.00;99.90;;;;;;5024739;28;20493;-79
2021/07/08 02:10:26;;;;;;;9.20;8.30;;;18.90;99.90;;;;;;5023258;28;20528;-79
2021/07/08 02:12:54;;;;;;;9.63;8.73;;;18.90;99.90;;;;;;5024608;28;20513;-79
2021/07/08 02:15:24;;;;;;;11.10;9.73;;;18.80;99.90;;;;;;5023988;28;20526;-78
2021/07/08 02:17:52;;;;;;;9.70;8.80;;;18.80;99.90;;;;;;5023930;28;20534;-78
2021/07/08 02:20:21;;;;;;;8.57;7.77;;;18.70;99.90;;;;;;5022699;28;20545;-79
2021/07/08 02:22:49;;;;;;;10.67;9.67;;;18.70;99.90;;;;;;5023635;28;20808;-78
2021/07/08 02:25:18;;;;;;;11.40;9.27;;;18.70;99.90;;;;;;5023481;28;20502;-79
2021/07/08 02:27:46;;;;;;;10.17;9.00;;;18.70;99.90;;;;;;5022316;28;21005;-78
2021/07/08 02:30:17;;;;;;;10.23;9.23;;;18.70;99.90;;;;;;5021634;28;20479;-78
2021/07/08 02:32:49;;;;;;;11.00;9.77;;;18.70;99.90;;;;;;5021392;28;20487;-78
2021/07/08 02:35:18;;;;;;;10.50;9.50;;;18.70;99.90;;;;;;5021073;28;20488;-77
2021/07/08 02:37:47;;;;;;;10.63;9.73;;;18.70;99.90;;;;;;5020712;28;20458;-78
2021/07/08 02:40:19;;;;;;;10.23;9.40;;;18.70;99.90;;;;;;5023795;28;20472;-78
2021/07/08 02:42:50;;;;;;;10.60;9.60;;;18.70;99.90;;;;;;5024401;28;20474;-78
2021/07/08 02:45:20;;;;;;;10.17;9.23;;;18.70;99.90;;;;;;5021384;28;20466;-78
2021/07/08 02:47:52;;;;;;;9.80;8.80;;;18.70;99.90;;;;;;5020948;28;20530;-78
2021/07/08 02:50:21;;;;;;;11.00;9.00;;;18.70;99.90;;;;;;5019487;28;20485;-77
2021/07/08 02:52:50;;;;;;;9.47;8.47;;;18.70;99.90;;;;;;5020995;28;20446;-78
2021/07/08 02:55:19;;;;;;;9.80;8.83;;;18.70;99.90;;;;;;5019935;28;20443;-78
2021/07/08 02:57:48;;;;;;;10.20;8.87;;;18.70;99.90;;;;;;5020144;28;20441;-78
2021/07/08 03:00:19;;;;;;;12.90;9.63;;;18.70;99.90;;;;;;5017112;28;20530;-78
2021/07/08 03:02:48;;;;;;;11.80;10.60;;;18.70;99.90;;;;;;5013857;28;20487;-78
2021/07/08 03:05:18;;;;;;;11.43;10.47;;;18.70;99.90;;;;;;5017321;28;20852;-78
2021/07/08 03:07:47;;;;;;;14.40;9.77;;;18.70;99.90;;;;;;5019926;28;20483;-78
2021/07/08 03:10:18;;;;;;;13.20;10.17;;;18.70;99.90;;;;;;5018658;28;20484;-77
2021/07/08 03:12:47;;;;;;;10.52;9.57;;;18.70;99.90;;;;;;5017116;28;20872;-76
2021/07/08 03:15:16;;;;;;;9.93;9.03;;;18.70;99.90;;;;;;5016950;28;20288;-77
2021/07/08 03:17:45;;;;;;;12.97;9.67;;;18.70;99.90;;;;;;5016304;28;20486;-78
2021/07/08 03:20:18;;;;;;;11.63;8.97;;;18.70;99.90;;;;;;5014490;28;20844;-77
2021/07/08 03:22:49;;;;;;;12.73;10.40;;;18.70;99.90;;;;;;5017965;28;21050;-77
2021/07/08 03:25:20;;;;;;;11.07;10.00;;;18.70;99.90;;;;;;5015967;28;20472;-77
2021/07/08 03:27:48;;;;;;;11.20;9.37;;;18.70;99.90;;;;;;5018372;28;20466;-77
2021/07/08 03:30:31;;;;;;;10.20;9.20;;;18.70;99.90;;;;;;5017058;28;20494;-78
2021/07/08 03:33:02;;;;;;;11.10;9.93;;;18.60;99.90;;;;;;4990361;28;20615;-74
2021/07/08 03:35:32;;;;;;;10.50;9.60;;;18.60;99.90;;;;;;4952787;28;20458;-74
2021/07/08 03:38:03;;;;;;;12.10;10.80;;;18.60;99.90;;;;;;4938896;29;20490;-74
2021/07/08 03:40:32;;;;;;;10.33;9.40;;;18.60;99.90;;;;;;4930211;29;20472;-74
2021/07/08 03:43:01;;;;;;;11.97;10.20;;;18.60;99.90;;;;;;4937015;29;20551;-74
2021/07/08 03:45:30;;;;;;;10.80;9.70;;;18.60;99.90;;;;;;4940316;29;20537;-74
2021/07/08 03:47:58;;;;;;;13.00;10.10;;;18.60;99.90;;;;;;4938011;29;20437;-74
2021/07/08 03:50:26;;;;;;;11.27;10.17;;;18.60;99.90;;;;;;4958767;28;20482;-74
2021/07/08 03:52:56;;;;;;;11.30;10.30;;;18.60;99.90;;;;;;4957152;28;20503;-74
2021/07/08 03:55:27;;;;;;;15.60;11.30;;;18.60;99.90;;;;;;4971449;28;20447;-74
2021/07/08 03:57:55;;;;;;;14.60;10.77;;;18.60;99.90;;;;;;4971113;28;20834;-74
2021/07/08 04:00:37;;;;;;;11.83;10.00;;;18.60;99.90;;;;;;4968920;28;20891;-74
2021/07/08 04:03:08;;;;;;;10.30;9.30;;;18.60;99.90;;;;;;4922749;29;20774;-75
2021/07/08 04:05:38;;;;;;;11.13;9.77;;;18.60;99.90;;;;;;4941825;29;20481;-76
2021/07/08 04:08:08;;;;;;;11.83;10.63;;;18.60;99.90;;;;;;4955941;28;20815;-76
2021/07/08 04:10:39;;;;;;;10.80;9.70;;;18.60;99.90;;;;;;4973020;28;20481;-76
2021/07/08 04:13:10;;;;;;;11.73;10.53;;;18.60;99.90;;;;;;4951029;28;20492;-76
2021/07/08 04:15:40;;;;;;;11.07;9.87;;;18.60;99.90;;;;;;4952178;29;20864;-76
2021/07/08 04:18:10;;;;;;;11.40;10.40;;;18.60;99.90;;;;;;4937353;29;20437;-76
2021/07/08 04:20:39;;;;;;;9.80;9.00;;;18.70;99.90;;;;;;4946279;29;20503;-76
2021/07/08 04:23:09;;;;;;;11.10;10.00;;;18.70;99.90;;;;;;4954959;28;20537;-76
2021/07/08 04:25:40;;;;;;;11.13;10.17;;;18.70;99.90;;;;;;4955627;28;20850;-76
2021/07/08 04:28:09;;;;;;;10.73;9.80;;;18.70;99.90;;;;;;4917951;29;20440;-76
2021/07/08 04:30:38;;;;;;;11.23;10.13;;;18.70;99.90;;;;;;4932872;29;20514;-76
2021/07/08 04:33:07;;;;;;;12.17;11.00;;;18.70;99.90;;;;;;4932455;29;20454;-76
2021/07/08 04:35:38;;;;;;;10.23;9.33;;;18.70;99.90;;;;;;4947496;28;20456;-76
2021/07/08 04:38:08;;;;;;;12.37;11.10;;;18.70;99.90;;;;;;4970860;28;20440;-76
2021/07/08 04:40:38;;;;;;;11.83;10.33;;;18.70;99.90;;;;;;4938868;29;20496;-76
2021/07/08 04:43:08;;;;;;;11.70;10.70;;;18.70;99.90;;;;;;4951688;29;20443;-76
2021/07/08 04:45:36;;;;;;;12.53;11.23;;;18.70;99.90;;;;;;4936532;28;20474;-76
2021/07/08 04:48:06;;;;;;;12.23;11.10;;;18.70;99.90;;;;;;4951055;28;20537;-76
2021/07/08 04:50:35;;;;;;;11.67;10.57;;;18.80;99.90;;;;;;4946030;29;20821;-76
2021/07/08 04:53:03;;;;;;;11.90;10.23;;;18.70;99.90;;;;;;4945156;28;20543;-76
2021/07/08 04:55:32;;;;;;;12.37;11.27;;;18.80;99.90;;;;;;4957251;28;20940;-76
2021/07/08 04:58:01;;;;;;;12.03;10.87;;;18.80;99.90;;;;;;4970433;28;20793;-76
2021/07/08 05:00:29;;;;;;;12.40;11.20;;;18.90;99.90;;;;;;4951944;28;20608;-76
2021/07/08 05:02:58;;;;;;;11.50;10.30;;;18.90;99.90;;;;;;4935961;29;20863;-76
2021/07/08 05:05:26;;;;;;;12.80;11.60;;;18.90;99.90;;;;;;4950106;28;20554;-76
2021/07/08 05:07:55;;;;;;;11.50;10.60;;;18.90;99.90;;;;;;4949972;28;20461;-76
2021/07/08 05:10:23;;;;;;;11.47;10.50;;;18.90;99.90;;;;;;4938213;29;20553;-76
2021/07/08 05:12:52;;;;;;;12.10;11.00;;;19.00;99.90;;;;;;4935945;29;20441;-76
2021/07/08 05:15:22;;;;;;;12.83;11.63;;;19.00;99.90;;;;;;4934985;29;20258;-74
2021/07/08 05:17:50;;;;;;;13.83;12.63;;;19.00;99.90;;;;;;4950861;28;20459;-74
2021/07/08 05:20:23;;;;;;;17.70;12.60;;;19.10;99.90;;;;;;4934735;29;20484;-72
2021/07/08 05:22:56;;;;;;;14.88;13.32;;;19.10;99.90;;;;;;4934966;29;20445;-76
2021/07/08 05:25:25;;;;;;;14.10;12.80;;;19.10;99.90;;;;;;4934341;29;20310;-74
2021/07/08 05:27:53;;;;;;;13.57;12.00;;;19.20;99.90;;;;;;4951356;28;21045;-75
2021/07/08 05:30:23;;;;;;;14.03;12.77;;;19.20;99.90;;;;;;4935829;29;20513;-75
2021/07/08 05:32:51;;;;;;;13.37;11.97;;;19.20;99.90;;;;;;4935902;29;20451;-75
2021/07/08 05:35:20;;;;;;;13.70;12.47;;;19.20;99.90;;;;;;4936996;29;20503;-75
2021/07/08 05:37:49;;;;;;;14.57;12.97;;;19.30;99.90;;;;;;4935950;29;20968;-75
2021/07/08 05:40:19;;;;;;;12.40;11.30;;;19.30;99.90;;;;;;4936786;29;20562;-75
2021/07/08 05:42:47;;;;;;;14.07;11.57;;;19.30;99.90;;;;;;4938454;29;20876;-75
2021/07/08 05:45:17;;;;;;;13.80;12.30;;;19.40;99.90;;;;;;4934587;29;20572;-75
2021/07/08 05:47:46;;;;;;;14.67;13.30;;;19.40;99.90;;;;;;4937654;29;20450;-75
2021/07/08 05:50:16;;;;;;;14.73;13.30;;;19.50;99.90;;;;;;4934628;29;20477;-73
2021/07/08 05:52:44;;;;;;;14.20;12.80;;;19.50;99.90;;;;;;4934540;29;20517;-72
2021/07/08 05:55:14;;;;;;;14.57;13.23;;;19.60;99.90;;;;;;4937247;28;20480;-74
2021/07/08 05:57:47;;;;;;;14.87;12.53;;;19.70;99.90;;;;;;4935811;29;20490;-75
2021/07/08 06:00:17;;;;;;;14.37;13.00;;;19.90;99.90;;;;;;4950659;28;20913;-75
2021/07/08 06:02:47;;;;;;;14.90;13.40;;;20.10;99.90;;;;;;4934757;29;20974;-73
2021/07/08 06:05:16;;;;;;;14.47;13.00;;;20.40;99.90;;;;;;4950425;28;20530;-72
2021/07/08 06:07:44;;;;;;;12.77;11.43;;;20.70;99.90;;;;;;4936126;29;20469;-74
2021/07/08 06:10:13;;;;;;;13.97;10.57;;;21.00;99.90;;;;;;4935895;29;20573;-73
2021/07/08 06:12:42;;;;;;;11.47;10.30;;;21.20;99.90;;;;;;4934409;29;20447;-72
2021/07/08 06:15:11;;;;;;;13.00;11.70;;;21.50;99.90;;;;;;4935457;29;20463;-72
2021/07/08 06:17:39;;;;;;;12.30;11.10;;;21.80;99.90;;;;;;4933800;29;20452;-72
2021/07/08 06:20:11;;;;;;;12.80;10.47;;;22.10;99.90;;;;;;4936659;29;20234;-72
2021/07/08 06:22:39;;;;;;;10.37;9.37;;;22.40;99.90;;;;;;4935972;29;20460;-72
2021/07/08 06:25:08;;;;;;;14.33;10.17;;;22.60;99.90;;;;;;4935545;29;20439;-72
2021/07/08 06:27:36;;;;;;;11.30;10.13;;;22.80;99.90;;;;;;4935565;29;20867;-74
2021/07/08 06:30:05;;;;;;;9.77;7.73;;;23.00;99.90;;;;;;4935476;29;20220;-74
2021/07/08 06:32:36;;;;;;;9.20;8.27;;;23.10;99.90;;;;;;4950791;28;20832;-72
2021/07/08 06:35:07;;;;;;;8.03;7.33;;;23.20;99.90;;;;;;4936025;29;20428;-72
2021/07/08 06:37:37;;;;;;;8.30;7.50;;;23.20;99.90;;;;;;4938232;29;20423;-72
2021/07/08 06:40:07;;;;;;;7.63;6.80;;;23.20;99.90;;;;;;4940898;28;20494;-74
2021/07/08 06:42:35;;;;;;;7.90;7.17;;;23.20;99.90;;;;;;4938967;29;20962;-72
2021/07/08 06:45:05;;;;;;;7.37;6.77;;;23.20;99.90;;;;;;4939344;29;20439;-72
2021/07/08 06:47:39;;;;;;;8.83;7.20;;;23.30;99.90;;;;;;4941107;29;20475;-73
2021/07/08 06:50:08;;;;;;;7.57;6.87;;;23.30;99.90;;;;;;4939022;29;20467;-72
2021/07/08 06:52:37;;;;;;;13.33;10.43;;;23.30;99.90;;;;;;4938788;29;20436;-72
2021/07/08 06:55:06;;;;;;;8.87;7.93;;;23.30;99.90;;;;;;4937527;29;20524;-73
2021/07/08 06:57:35;;;;;;;6.93;6.33;;;23.30;99.90;;;;;;4940084;29;20785;-72
2021/07/08 07:00:04;;;;;;;16.50;12.50;;;23.20;99.90;;;;;;4938562;29;20463;-72
2021/07/08 07:02:32;;;;;;;9.50;8.33;;;23.20;99.90;;;;;;4938919;29;20510;-72
2021/07/08 07:05:01;;;;;;;6.43;5.93;;;23.20;99.90;;;;;;4937117;29;20476;-72
2021/07/08 07:07:29;;;;;;;7.40;6.80;;;23.30;99.90;;;;;;4938151;29;20518;-72
2021/07/08 07:09:58;;;;;;;7.97;6.40;;;23.30;99.90;;;;;;4937187;29;20566;-72
2021/07/08 07:12:26;;;;;;;7.57;6.00;;;23.30;99.90;;;;;;4936970;29;20502;-72
2021/07/08 07:14:54;;;;;;;5.40;4.90;;;23.40;99.90;;;;;;4937019;29;20534;-72
2021/07/08 07:17:22;;;;;;;8.27;5.50;;;23.50;99.90;;;;;;4938504;29;20467;-72
2021/07/08 07:19:51;;;;;;;9.07;6.00;;;23.50;99.90;;;;;;4938080;29;20486;-72
2021/07/08 07:22:20;;;;;;;5.93;5.40;;;23.60;99.90;;;;;;4952563;29;20864;-72
2021/07/08 07:24:50;;;;;;;7.83;6.20;;;23.60;99.90;;;;;;4938576;29;20850;-72
2021/07/08 07:27:20;;;;;;;6.13;5.53;;;23.70;99.90;;;;;;4938355;29;20459;-72
2021/07/08 07:29:48;;;;;;;5.53;4.73;;;23.70;99.90;;;;;;4937971;29;20500;-72
2021/07/08 07:32:17;;;;;;;5.60;4.87;;;23.70;99.90;;;;;;4937816;29;20506;-73
2021/07/08 07:34:45;;;;;;;5.63;4.93;;;23.80;99.90;;;;;;4936520;29;20547;-72
2021/07/08 07:37:13;;;;;;;8.30;7.33;;;23.80;99.90;;;;;;4938095;29;20440;-72
2021/07/08 07:39:41;;;;;;;11.93;9.23;;;23.80;99.90;;;;;;4937634;29;20468;-72
2021/07/08 07:42:09;;;;;;;4.80;4.17;;;23.80;99.90;;;;;;4937266;29;20452;-72
2021/07/08 07:44:43;;;;;;;4.63;4.23;;;23.90;99.90;;;;;;4936394;29;20534;-72
2021/07/08 07:47:12;;;;;;;7.00;6.30;;;23.90;99.90;;;;;;4952218;28;20467;-72
2021/07/08 07:49:40;;;;;;;6.13;4.63;;;24.00;99.90;;;;;;4937746;29;20878;-72
2021/07/08 07:52:08;;;;;;;5.60;4.37;;;24.00;99.90;;;;;;4937857;29;20443;-72
2021/07/08 07:54:37;;;;;;;5.40;3.90;;;24.00;99.90;;;;;;4937527;29;20491;-72
2021/07/08 07:57:08;;;;;;;2.80;2.60;;;24.10;99.90;;;;;;4937800;29;20436;-72
2021/07/08 07:59:36;;;;;;;3.67;3.33;;;24.20;99.90;;;;;;4938758;29;20491;-72
2021/07/08 08:02:10;;;;;;;4.57;3.33;;;24.20;99.90;;;;;;4936152;29;20531;-72
2021/07/08 08:04:43;;;;;;;3.23;2.73;;;24.30;99.90;;;;;;4937839;29;20455;-72
2021/07/08 08:09:58;;;;;;;3.60;3.30;;;24.50;99.90;;;;;;4952247;28;20530;-72
2021/07/08 08:12:27;;;;;;;7.27;3.57;;;24.60;99.90;;;;;;4937247;29;20973;-72
2021/07/08 08:14:55;;;;;;;3.40;3.10;;;24.70;99.90;;;;;;4937358;29;20810;-72
2021/07/08 08:17:24;;;;;;;3.50;2.70;;;24.90;99.90;;;;;;4937170;29;20460;-71
2021/07/08 08:20:13;;;;;;;3.00;2.20;;;25.00;99.90;;;;;;4936470;29;20531;-72
2021/07/08 08:22:41;;;;;;;3.53;2.70;;;25.10;99.90;;;;;;4952154;29;20453;-72
2021/07/08 08:25:11;;;;;;;2.73;2.53;;;25.30;99.90;;;;;;4938382;29;20439;-72
2021/07/08 08:27:40;;;;;;;4.03;3.30;;;25.30;99.90;;;;;;4952152;28;20481;-72
2021/07/08 08:30:11;;;;;;;3.03;2.40;;;25.50;99.90;;;;;;4936499;29;20498;-71
2021/07/08 08:32:41;;;;;;;3.73;2.83;;;25.60;99.90;;;;;;4937563;29;20448;-71
2021/07/08 08:35:10;;;;;;;2.80;2.60;;;25.80;99.90;;;;;;4936125;29;20574;-72
2021/07/08 08:37:40;;;;;;;3.30;2.30;;;25.90;99.90;;;;;;4937944;29;20452;-72
2021/07/08 08:40:10;;;;;;;3.60;2.70;;;26.00;99.90;;;;;;4935834;29;20505;-72
2021/07/08 08:42:38;;;;;;;2.63;2.43;;;26.00;99.90;;;;;;4937911;29;20480;-72
2021/07/08 08:45:11;;;;;;;4.43;4.03;;;26.10;99.90;;;;;;4936845;29;20440;-72
2021/07/08 08:47:55;;;;;;;3.10;2.70;;;26.10;99.90;;;;;;4935641;29;20463;-71
2021/07/08 08:50:23;;;;;;;2.83;2.10;;;26.20;99.90;;;;;;4939079;29;20459;-72
2021/07/08 08:52:51;;;;;;;3.40;2.80;;;26.40;99.90;;;;;;4937005;29;20440;-71
2021/07/08 08:55:21;;;;;;;2.40;2.03;;;26.50;99.90;;;;;;4936627;29;20530;-71
2021/07/08 08:57:49;;;;;;;2.83;2.40;;;26.50;99.60;;;;;;4939870;29;20495;-72
2021/07/08 09:00:53;;;;;;;2.73;2.20;;;26.60;99.40;;;;;;4950984;28;20571;-72
2021/07/08 09:03:25;;;;;;;2.70;2.50;;;26.70;98.80;;;;;;4953070;28;20541;-71
2021/07/08 09:06:06;;;;;;;4.00;3.10;;;26.80;97.60;;;;;;4938447;29;20491;-71
2021/07/08 09:08:35;;;;;;;2.77;2.37;;;26.90;97.70;;;;;;4937305;29;20464;-72
2021/07/08 09:11:13;;;;;;;3.17;2.77;;;26.90;97.70;;;;;;4939552;29;20999;-72
2021/07/08 09:13:59;;;;;;;2.67;2.47;;;26.90;97.60;;;;;;4935365;29;20478;-72
2021/07/08 09:16:32;;;;;;;3.03;2.30;;;26.90;97.50;;;;;;4939552;29;20480;-72
2021/07/08 09:19:10;;;;;;;2.83;2.47;;;27.00;97.60;;;;;;4951288;29;20447;-72
2021/07/08 09:21:41;;;;;;;2.87;2.57;;;27.10;97.40;;;;;;4936756;29;20796;-72
2021/07/08 09:24:16;;;;;;;3.83;2.67;;;27.10;97.20;;;;;;4936840;29;20480;-71
2021/07/08 09:26:53;;;;;;;3.50;2.50;;;27.10;96.80;;;;;;4951224;28;20447;-72
2021/07/08 09:29:24;;;;;;;3.37;3.00;;;27.10;96.60;;;;;;4937603;29;20522;-72
2021/07/08 09:31:54;;;;;;;2.90;2.60;;;27.20;96.40;;;;;;4936299;29;20498;-72
2021/07/08 11:41:09;;;;;;;3.60;3.10;;;27.60;90.80;;;;;;3351209;26;20492;-77
2021/07/08 11:43:37;;;;;;;3.30;3.00;;;27.50;90.90;;;;;;5016015;28;20901;-77
2021/07/08 11:46:07;;;;;;;3.40;3.07;;;27.60;91.00;;;;;;5015384;28;20468;-77
2021/07/08 11:48:38;;;;;;;3.63;3.33;;;27.60;90.90;;;;;;5015343;28;20457;-77
2021/07/08 11:51:15;;;;;;;6.93;3.37;;;27.70;90.70;;;;;;5014683;28;20470;-77
2021/07/08 11:53:44;;;;;;;3.70;3.23;;;27.70;90.60;;;;;;5015897;28;20452;-77
2021/07/08 11:56:16;;;;;;;3.50;3.20;;;27.80;90.60;;;;;;5015181;28;20951;-77
2021/07/08 11:58:44;;;;;;;4.00;2.40;;;27.80;90.90;;;;;;5014487;28;20450;-76
2021/07/08 12:01:16;;;;;;;4.63;3.17;;;28.00;88.90;;;;;;5013780;28;20555;-76
2021/07/08 12:03:51;;;;;;;3.13;2.73;;;28.00;88.90;;;;;;5015122;28;20443;-77
2021/07/08 12:06:24;;;;;;;3.90;2.70;;;27.90;88.90;;;;;;5015187;28;20917;-77
2021/07/08 12:08:59;;;;;;;4.33;3.47;;;27.90;89.10;;;;;;5015529;28;20463;-77
2021/07/08 12:11:31;;;;;;;3.33;3.03;;;27.80;89.00;;;;;;5013541;28;20572;-77
2021/07/08 12:14:01;;;;;;;4.00;3.13;;;27.80;89.00;;;;;;5013659;28;20448;-77
2021/07/08 12:16:35;;;;;;;5.20;3.10;;;27.80;89.10;;;;;;5014940;28;20781;-76
2021/07/08 12:19:06;;;;;;;3.70;2.93;;;27.80;88.90;;;;;;5014836;28;20504;-77
2021/07/08 12:21:36;;;;;;;7.23;3.30;;;27.90;88.80;;;;;;5015008;28;20425;-77
2021/07/08 12:24:08;;;;;;;6.30;2.83;;;27.90;88.60;;;;;;5013429;28;20547;-77
2021/07/08 12:26:39;;;;;;;2.63;2.43;;;27.90;88.50;;;;;;5015232;28;20448;-77
2021/07/08 12:29:22;;;;;;;3.27;2.80;;;27.80;88.30;;;;;;5013341;28;20921;-77
2021/07/08 12:31:53;;;;;;;3.27;2.93;;;27.90;88.20;;;;;;5013279;28;20447;-77
2021/07/08 12:34:23;;;;;;;3.10;2.80;;;27.80;88.00;;;;;;5013698;28;20526;-76
2021/07/08 12:36:52;;;;;;;3.13;2.60;;;27.80;88.70;;;;;;5015010;28;20215;-77
2021/07/08 12:39:26;;;;;;;3.10;2.80;;;27.80;88.20;;;;;;5013048;28;20540;-76
2021/07/08 12:41:59;;;;;;;3.90;3.40;;;27.80;88.50;;;;;;5014339;28;20538;-76
2021/07/08 12:44:28;;;;;;;3.30;3.00;;;27.70;88.50;;;;;;5012373;28;20861;-76
2021/07/08 12:46:57;;;;;;;5.40;2.93;;;27.80;87.60;;;;;;5014570;28;20587;-76
2021/07/08 12:49:29;;;;;;;3.70;3.07;;;27.70;87.50;;;;;;5012772;28;20479;-77
2021/07/08 12:51:57;;;;;;;3.73;2.50;;;27.70;87.50;;;;;;5014230;28;20960;-76
2021/07/08 12:54:33;;;;;;;12.30;3.93;;;27.60;87.60;;;;;;5014109;28;20471;-77
2021/07/08 12:57:05;;;;;;;4.37;3.93;;;27.50;87.60;;;;;;5012785;28;20441;-77
2021/07/08 12:59:33;;;;;;;3.83;3.03;;;27.50;87.60;;;;;;5014477;28;20551;-76
2021/07/08 13:02:02;;;;;;;2.73;2.53;;;27.50;87.70;;;;;;5014326;28;20434;-74
2021/07/08 13:04:31;;;;;;;3.23;2.90;;;27.50;87.70;;;;;;5013979;28;20960;-74
2021/07/08 13:07:00;;;;;;;3.17;2.87;;;27.50;87.70;;;;;;5012627;28;20443;-75
2021/07/08 13:09:29;;;;;;;3.77;2.50;;;27.50;87.80;;;;;;5012507;28;20500;-75
2021/07/08 13:11:58;;;;;;;3.13;2.83;;;27.50;87.70;;;;;;5014149;28;20854;-75
2021/07/08 13:14:28;;;;;;;5.67;3.10;;;27.40;87.60;;;;;;5013913;28;20458;-75
2021/07/08 13:17:07;;;;;;;4.13;3.40;;;27.40;87.60;;;;;;5015131;28;20514;-77
2021/07/08 13:19:39;;;;;;;6.53;4.47;;;27.40;87.00;;;;;;5013994;28;20468;-77
2021/07/08 13:22:16;;;;;;;3.90;3.60;;;27.40;87.30;;;;;;5014912;28;20846;-77
2021/07/08 13:24:44;;;;;;;5.13;4.60;;;27.40;87.70;;;;;;5014333;28;20796;-77
2021/07/08 13:27:13;;;;;;;4.43;3.90;;;27.30;88.10;;;;;;5012414;28;20876;-77
2021/07/08 13:29:42;;;;;;;5.00;4.03;;;27.40;88.20;;;;;;5014595;28;20490;-77
2021/07/08 13:32:21;;;;;;;5.70;3.97;;;27.30;88.10;;;;;;5013423;28;20871;-77
2021/07/08 13:34:51;;;;;;;6.10;4.20;;;27.30;88.40;;;;;;5014693;28;20905;-77
2021/07/08 13:37:22;;;;;;;4.40;4.00;;;27.20;88.60;;;;;;5012910;28;20451;-77
2021/07/08 13:39:50;;;;;;;5.00;4.23;;;27.30;88.70;;;;;;5012887;28;20468;-77
2021/07/08 13:42:26;;;;;;;5.50;3.77;;;27.40;88.70;;;;;;5014229;28;20854;-77
2021/07/08 13:44:59;;;;;;;4.10;3.80;;;27.50;88.50;;;;;;5012467;28;20475;-77
2021/07/08 13:47:27;;;;;;;7.83;3.60;;;27.50;88.30;;;;;;5018629;28;20450;-77
2021/07/08 13:49:57;;;;;;;3.93;3.63;;;27.50;88.00;;;;;;5019967;28;20479;-77
2021/07/08 13:52:25;;;;;;;4.63;3.43;;;27.60;88.30;;;;;;5020351;28;20955;-77
2021/07/08 13:54:54;;;;;;;4.23;3.50;;;27.70;88.00;;;;;;5020015;28;20432;-77
2021/07/08 13:57:22;;;;;;;3.95;3.55;;;27.70;87.80;;;;;;5019320;28;21015;-77
2021/07/08 14:00:00;;;;;;;3.37;3.03;;;27.80;87.90;;;;;;5019991;28;20708;-77
2021/07/08 14:02:29;;;;;;;7.17;3.60;;;27.90;87.80;;;;;;5016564;28;20464;-77
2021/07/08 14:04:57;;;;;;;4.17;3.77;;;28.00;88.00;;;;;;5020368;28;21026;-77
2021/07/08 14:07:26;;;;;;;3.78;3.47;;;28.00;87.50;;;;;;5017560;28;20929;-77
2021/07/08 14:09:54;;;;;;;3.60;3.30;;;28.10;84.40;;;;;;5017352;28;20227;-77
2021/07/08 14:12:22;;;;;;;4.83;3.80;;;28.10;84.80;;;;;;5019502;28;20877;-77
2021/07/08 14:14:50;;;;;;;3.93;3.30;;;28.00;85.30;;;;;;5019687;28;20431;-77
2021/07/08 14:17:18;;;;;;;3.53;3.23;;;28.00;85.40;;;;;;5017707;28;20446;-77
2021/07/08 14:19:48;;;;;;;3.50;2.73;;;28.00;85.20;;;;;;5016993;28;20554;-77
2021/07/08 14:22:16;;;;;;;3.57;3.27;;;28.00;85.20;;;;;;5016158;28;20478;-77
2021/07/08 14:24:44;;;;;;;4.03;2.97;;;27.90;84.90;;;;;;5018449;28;20941;-77
2021/07/08 14:27:12;;;;;;;3.70;3.20;;;27.90;84.80;;;;;;5019558;28;20490;-77
2021/07/08 14:29:40;;;;;;;3.20;2.90;;;27.80;84.70;;;;;;5019406;28;20485;-76
2021/07/08 14:32:08;;;;;;;6.13;3.90;;;27.80;85.00;;;;;;5019953;28;20535;-76
2021/07/08 14:34:37;;;;;;;4.57;4.13;;;27.70;85.20;;;;;;5018302;28;20447;-76
2021/07/08 14:37:06;;;;;;;3.47;3.17;;;27.60;85.20;;;;;;5018273;28;20548;-76
2021/07/08 14:39:34;;;;;;;3.73;3.43;;;27.60;85.10;;;;;;5019395;28;20478;-77
2021/07/08 14:42:08;;;;;;;3.35;3.00;;;27.50;85.10;;;;;;5017120;28;20541;-76
2021/07/08 14:44:41;;;;;;;3.90;3.20;;;27.60;84.70;;;;;;5018205;28;20190;-77
2021/07/08 14:47:14;;;;;;;4.03;3.50;;;27.60;85.00;;;;;;5017915;28;20849;-76
2021/07/08 14:49:42;;;;;;;3.73;3.10;;;27.50;85.60;;;;;;5017548;28;20575;-77
2021/07/08 14:52:12;;;;;;;3.67;3.05;;;27.40;85.30;;;;;;5017866;28;20876;-76
2021/07/08 14:54:41;;;;;;;4.30;3.50;;;27.40;84.40;;;;;;5018084;28;20189;-77
2021/07/08 14:57:09;;;;;;;3.80;3.03;;;27.40;84.60;;;;;;5017700;28;20531;-77
2021/07/08 14:59:37;;;;;;;3.47;3.10;;;27.40;84.60;;;;;;5013494;28;20468;-77
2021/07/08 15:02:07;;;;;;;3.30;2.93;;;27.30;84.50;;;;;;5013995;28;20893;-77
2021/07/08 15:04:35;;;;;;;3.63;3.33;;;27.30;84.40;;;;;;5014901;28;20448;-77